createdAt,value
2018-06-07T00:02:00.056Z,53.20
2018-06-07T00:04:29.123Z,53.10
2018-06-07T00:06:58.194Z,53.20
2018-06-07T00:09:27.040Z,53.30
2018-06-07T00:11:55.893Z,53.40
2018-06-07T00:14:24.756Z,53.40
2018-06-07T00:16:53.923Z,53.40
2018-06-07T00:19:22.755Z,53.50
2018-06-07T00:21:51.582Z,53.50
2018-06-07T00:24:20.654Z,53.60
2018-06-07T00:26:49.626Z,53.60
2018-06-07T00:29:18.774Z,53.60
2018-06-07T00:31:47.843Z,53.70
2018-06-07T00:34:16.887Z,53.80
2018-06-07T00:36:45.860Z,53.80
2018-06-07T00:39:14.905Z,53.80
2018-06-07T00:41:43.974Z,53.80
2018-06-07T00:44:13.111Z,53.80
2018-06-07T00:46:42.208Z,53.90
2018-06-07T00:49:11.326Z,53.90
2018-06-07T00:51:40.512Z,53.90
2018-06-07T00:54:09.850Z,53.90
2018-06-07T00:56:50.091Z,54.60
2018-06-07T00:59:19.123Z,53.90
2018-06-07T01:01:48.095Z,54.00
2018-06-07T01:04:17.242Z,54.00
2018-06-07T01:09:14.843Z,54.00
2018-06-07T01:11:44.016Z,54.00
2018-06-07T01:14:13.159Z,54.00
2018-06-07T01:16:42.228Z,54.10
2018-06-07T01:19:11.262Z,54.10
2018-06-07T01:24:08.975Z,54.10
2018-06-07T01:26:38.042Z,54.10
2018-06-07T01:29:14.185Z,54.10
2018-06-07T01:32:31.419Z,54.10
2018-06-07T01:35:00.458Z,54.20
2018-06-07T01:37:29.466Z,54.20
2018-06-07T01:39:58.503Z,54.20
2018-06-07T01:44:56.214Z,54.20
2018-06-07T01:47:25.286Z,54.20
2018-06-07T01:49:54.539Z,54.20
2018-06-07T01:52:23.707Z,54.20
2018-06-07T01:54:52.950Z,54.90
2018-06-07T01:57:21.934Z,54.20
2018-06-07T01:59:50.968Z,54.30
2018-06-07T02:02:20.039Z,54.30
2018-06-07T02:04:49.203Z,54.30
2018-06-07T02:07:18.246Z,54.30
2018-06-07T02:09:47.395Z,54.30
2018-06-07T02:12:16.571Z,54.30
2018-06-07T02:14:45.712Z,54.30
2018-06-07T02:17:14.680Z,54.30
2018-06-07T02:19:43.727Z,54.30
2018-06-07T02:24:41.535Z,54.20
2018-06-07T02:27:10.498Z,54.30
2018-06-07T02:29:39.537Z,54.30
2018-06-07T02:32:08.512Z,54.30
2018-06-07T02:34:37.619Z,54.40
2018-06-07T02:37:06.863Z,54.40
2018-06-07T02:39:36.038Z,54.40
2018-06-07T02:42:05.080Z,54.40
2018-06-07T02:44:34.051Z,54.40
2018-06-07T02:47:03.195Z,54.40
2018-06-07T02:49:32.158Z,54.40
2018-06-07T02:52:01.274Z,54.40
2018-06-07T02:54:30.380Z,54.50
2018-06-07T02:56:59.434Z,54.50
2018-06-07T02:59:28.394Z,54.50
2018-06-07T03:01:57.548Z,54.40
2018-06-07T03:04:26.512Z,54.50
2018-06-07T03:06:55.658Z,54.60
2018-06-07T03:09:24.724Z,54.70
2018-06-07T03:11:53.771Z,54.60
2018-06-07T03:14:22.942Z,54.50
2018-06-07T03:16:52.083Z,54.40
2018-06-07T03:21:49.788Z,54.50
2018-06-07T03:24:18.854Z,54.50
2018-06-07T03:26:47.999Z,54.40
2018-06-07T03:29:17.074Z,54.50
2018-06-07T03:31:46.235Z,54.50
2018-06-07T03:34:15.289Z,54.50
2018-06-07T03:36:47.326Z,54.50
2018-06-07T03:39:16.466Z,54.50
2018-06-07T03:41:45.519Z,54.50
2018-06-07T03:44:14.586Z,54.50
2018-06-07T03:46:43.732Z,54.60
2018-06-07T03:49:12.702Z,55.10
2018-06-07T03:51:41.946Z,54.70
2018-06-07T03:56:39.751Z,54.70
2018-06-07T03:59:08.723Z,54.70
2018-06-07T04:01:38.175Z,54.70
2018-06-07T04:04:07.147Z,54.80
2018-06-07T04:06:36.287Z,54.80
2018-06-07T04:09:07.819Z,54.90
2018-06-07T04:11:37.475Z,54.90
2018-06-07T04:14:06.546Z,54.90
2018-06-07T04:16:35.690Z,54.90
2018-06-07T04:19:04.756Z,54.90
2018-06-07T04:21:33.802Z,54.90
2018-06-07T04:24:02.876Z,54.90
2018-06-07T04:26:32.014Z,54.90
2018-06-07T04:29:01.086Z,54.90
2018-06-07T04:31:30.126Z,54.90
2018-06-07T04:33:59.107Z,54.90
2018-06-07T04:36:28.252Z,55.00
2018-06-07T04:38:57.314Z,55.00
2018-06-07T04:41:26.354Z,55.00
2018-06-07T04:46:24.267Z,55.10
2018-06-07T04:48:53.368Z,55.10
2018-06-07T04:51:22.391Z,55.10
2018-06-07T04:53:51.352Z,55.10
2018-06-07T04:56:20.391Z,55.20
2018-06-07T04:58:49.468Z,55.20
2018-06-07T05:03:47.172Z,55.30
2018-06-07T05:06:16.206Z,55.30
2018-06-07T05:08:45.279Z,55.40
2018-06-07T05:11:14.283Z,55.50
2018-06-07T05:13:43.431Z,55.50
2018-06-07T05:16:12.404Z,55.50
2018-06-07T05:18:41.750Z,55.50
2018-06-07T05:21:10.831Z,55.50
2018-06-07T05:23:39.963Z,55.60
2018-06-07T05:26:09.143Z,55.60
2018-06-07T05:28:38.180Z,55.60
2018-06-07T05:31:07.258Z,55.60
2018-06-07T05:33:36.295Z,55.60
2018-06-07T05:36:05.368Z,55.50
2018-06-07T05:38:34.511Z,55.50
2018-06-07T05:43:32.223Z,55.40
2018-06-07T05:46:01.286Z,55.40
2018-06-07T05:48:30.330Z,55.40
2018-06-07T05:50:59.407Z,56.10
2018-06-07T05:53:28.406Z,55.40
2018-06-07T05:55:57.418Z,55.40
2018-06-07T05:58:26.558Z,55.30
2018-06-07T06:00:55.527Z,55.90
2018-06-07T06:03:24.799Z,55.20
2018-06-07T06:05:53.971Z,55.30
2018-06-07T06:08:23.099Z,55.00
2018-06-07T06:10:53.249Z,55.20
2018-06-07T06:13:22.348Z,55.20
2018-06-07T06:15:51.567Z,55.20
2018-06-07T06:18:20.751Z,55.10
2018-06-07T06:20:49.920Z,55.00
2018-06-07T06:23:18.966Z,54.90
2018-06-07T06:25:48.138Z,55.00
2018-06-07T06:28:17.182Z,54.90
2018-06-07T06:30:46.258Z,54.90
2018-06-07T06:35:44.062Z,54.90
2018-06-07T06:38:44.744Z,54.70
2018-06-07T06:41:13.823Z,54.70
2018-06-07T06:43:42.970Z,54.70
2018-06-07T06:46:12.043Z,54.90
2018-06-07T06:48:41.184Z,54.60
2018-06-07T06:51:10.265Z,54.70
2018-06-07T06:53:39.391Z,54.80
2018-06-07T06:56:08.470Z,55.20
2018-06-07T06:58:37.610Z,54.20
2018-06-07T07:01:06.687Z,54.60
2018-06-07T07:03:35.932Z,54.50
2018-06-07T07:06:05.004Z,54.60
2018-06-07T07:08:34.043Z,54.60
2018-06-07T07:13:31.744Z,54.30
2018-06-07T07:16:00.711Z,54.90
2018-06-07T07:18:30.058Z,54.70
2018-06-07T07:20:59.143Z,54.50
2018-06-07T07:23:28.283Z,54.60
2018-06-07T07:25:57.252Z,55.10
2018-06-07T07:28:26.395Z,54.80
2018-06-07T07:30:55.467Z,54.80
2018-06-07T07:33:24.715Z,55.20
2018-06-07T07:35:53.897Z,55.60
2018-06-07T07:38:23.761Z,55.80
2018-06-07T07:40:53.382Z,56.00
2018-06-07T07:43:23.177Z,56.10
2018-06-07T07:48:21.103Z,56.60
2018-06-07T07:50:50.175Z,56.00
2018-06-07T07:53:19.215Z,56.30
2018-06-07T07:55:48.187Z,56.30
2018-06-07T07:58:17.228Z,56.30
2018-06-07T08:03:15.035Z,56.30
2018-06-07T08:05:44.088Z,56.20
2018-06-07T08:08:13.251Z,56.10
2018-06-07T08:10:42.251Z,56.10
2018-06-07T08:13:11.821Z,56.10
2018-06-07T08:15:40.984Z,56.00
2018-06-07T08:18:10.025Z,56.00
2018-06-07T08:20:39.067Z,56.00
2018-06-07T08:23:08.262Z,55.90
2018-06-07T08:25:37.542Z,56.00
2018-06-07T08:28:06.695Z,56.00
2018-06-07T08:30:35.947Z,55.90
2018-06-07T08:33:04.912Z,55.90
2018-06-07T08:35:34.059Z,55.90
2018-06-07T08:38:03.131Z,55.90
2018-06-07T08:40:32.286Z,55.90
2018-06-07T08:43:01.651Z,55.90
2018-06-07T08:45:30.907Z,55.90
2018-06-07T08:48:02.539Z,55.70
2018-06-07T08:50:31.704Z,55.70
2018-06-07T08:53:00.953Z,55.70
2018-06-07T08:55:30.096Z,55.80
2018-06-07T08:57:59.286Z,55.80
2018-06-07T09:00:28.395Z,55.90
2018-06-07T09:02:57.505Z,56.00
2018-06-07T09:05:27.435Z,56.00
2018-06-07T09:07:56.521Z,56.80
2018-06-07T09:10:25.671Z,56.30
2018-06-07T09:12:54.835Z,55.90
2018-06-07T09:15:23.979Z,55.50
2018-06-07T09:17:52.911Z,56.30
2018-06-07T09:20:22.008Z,55.90
2018-06-07T09:22:51.062Z,56.40
2018-06-07T09:25:20.221Z,56.30
2018-06-07T09:27:49.434Z,56.30
2018-06-07T09:30:18.427Z,56.10
2018-06-07T09:32:47.392Z,55.80
2018-06-07T09:35:16.426Z,55.70
2018-06-07T09:37:45.403Z,56.40
2018-06-07T09:40:14.483Z,55.90
2018-06-07T09:42:43.627Z,55.80
2018-06-07T09:45:12.863Z,55.50
2018-06-07T09:47:41.805Z,55.40
2018-06-07T09:50:10.981Z,55.90
2018-06-07T09:52:40.063Z,55.80
2018-06-07T09:55:13.104Z,55.80
2018-06-07T09:57:42.671Z,55.60
2018-06-07T10:00:16.759Z,55.60
2018-06-07T10:02:45.873Z,55.40
2018-06-07T10:05:14.811Z,55.60
2018-06-07T10:07:43.910Z,55.40
2018-06-07T10:10:12.959Z,55.40
2018-06-07T10:12:42.136Z,55.30
2018-06-07T10:15:11.016Z,55.40
2018-06-07T10:17:40.039Z,55.20
2018-06-07T10:20:09.291Z,55.30
2018-06-07T10:22:38.455Z,55.20
2018-06-07T10:25:07.505Z,55.20
2018-06-07T10:27:36.587Z,55.00
2018-06-07T10:30:05.847Z,55.10
2018-06-07T10:32:34.723Z,55.10
2018-06-07T10:35:03.728Z,55.10
2018-06-07T10:37:32.694Z,55.10
2018-06-07T10:40:01.851Z,55.10
2018-06-07T10:42:30.919Z,55.10
2018-06-07T10:44:59.911Z,55.20
2018-06-07T10:47:29.112Z,55.10
2018-06-07T10:49:58.347Z,55.10
2018-06-07T10:52:27.384Z,55.10
2018-06-07T10:54:56.350Z,55.10
2018-06-07T10:57:25.492Z,55.00
2018-06-07T10:59:54.469Z,54.60
2018-06-07T11:02:23.364Z,54.70
2018-06-07T11:04:52.188Z,54.70
2018-06-07T11:07:21.074Z,54.70
2018-06-07T11:09:49.898Z,54.70
2018-06-07T11:12:18.794Z,54.70
2018-06-07T11:14:47.629Z,54.70
2018-06-07T11:17:16.718Z,54.70
2018-06-07T11:19:45.694Z,54.60
2018-06-07T11:22:14.730Z,54.70
2018-06-07T11:24:43.705Z,54.60
2018-06-07T11:27:12.850Z,54.60
2018-06-07T11:29:42.017Z,54.60
2018-06-07T11:32:11.164Z,54.30
2018-06-07T11:34:40.347Z,54.40
2018-06-07T11:39:38.404Z,55.00
2018-06-07T11:42:07.487Z,54.20
2018-06-07T11:44:36.565Z,54.20
2018-06-07T11:47:05.909Z,54.80
2018-06-07T11:49:34.891Z,54.10
2018-06-07T11:54:32.684Z,54.00
2018-06-07T11:57:01.744Z,54.00
2018-06-07T11:59:31.080Z,54.00
2018-06-07T12:02:00.351Z,53.90
2018-06-07T12:04:29.323Z,53.90
2018-06-07T12:06:58.571Z,53.90
2018-06-07T12:09:29.068Z,53.90
2018-06-07T12:11:58.214Z,53.90
2018-06-07T12:14:27.284Z,53.90
2018-06-07T12:16:56.435Z,53.90
2018-06-07T12:19:25.606Z,53.80
2018-06-07T12:21:54.655Z,53.90
2018-06-07T12:24:23.926Z,53.70
2018-06-07T12:26:52.972Z,53.80
2018-06-07T12:29:21.907Z,53.80
2018-06-07T12:31:50.978Z,53.80
2018-06-07T12:34:19.786Z,53.80
2018-06-07T12:36:48.627Z,53.80
2018-06-07T12:39:17.651Z,53.90
2018-06-07T12:41:47.824Z,53.90
2018-06-07T12:44:16.886Z,53.80
2018-06-07T12:46:46.000Z,53.80
2018-06-07T12:49:15.080Z,53.80
2018-06-07T12:51:44.160Z,53.80
2018-06-07T12:54:13.225Z,53.80
2018-06-07T12:56:42.264Z,53.90
2018-06-07T12:59:11.335Z,53.80
2018-06-07T13:01:40.480Z,53.80
2018-06-07T13:04:09.958Z,53.80
2018-06-07T13:06:39.516Z,53.80
2018-06-07T13:09:09.004Z,53.80
2018-06-07T13:11:37.971Z,53.80
2018-06-07T13:14:07.251Z,53.70
2018-06-07T13:16:36.429Z,53.70
2018-06-07T13:19:05.425Z,53.70
2018-06-07T13:21:34.435Z,53.70
2018-06-07T13:24:03.584Z,53.60
2018-06-07T13:26:33.243Z,53.60
2018-06-07T13:29:02.312Z,53.60
2018-06-07T13:31:31.314Z,53.60
2018-06-07T13:34:00.352Z,53.50
2018-06-07T13:36:29.382Z,53.50
2018-06-07T13:38:58.432Z,53.60
2018-06-07T13:41:27.366Z,53.50
2018-06-07T13:43:56.541Z,53.50
2018-06-07T13:46:25.510Z,53.50
2018-06-07T13:48:54.651Z,53.60
2018-06-07T13:51:23.730Z,53.60
2018-06-07T13:53:52.871Z,53.60
2018-06-07T13:56:23.404Z,53.60
2018-06-07T13:58:52.427Z,53.60
2018-06-07T14:01:21.599Z,53.70
2018-06-07T14:03:50.742Z,53.70
2018-06-07T14:06:19.715Z,53.70
2018-06-07T14:08:48.607Z,53.60
2018-06-07T14:11:17.798Z,53.60
2018-06-07T14:13:46.707Z,53.70
2018-06-07T14:16:15.527Z,53.70
2018-06-07T14:18:44.371Z,53.70
2018-06-07T14:21:13.176Z,53.70
2018-06-07T14:23:42.098Z,53.80
2018-06-07T14:26:10.979Z,53.80
2018-06-07T14:28:46.067Z,53.80
2018-06-07T14:31:14.924Z,53.70
2018-06-07T14:33:43.796Z,53.70
2018-06-07T14:36:12.635Z,53.80
2018-06-07T14:38:41.547Z,53.80
2018-06-07T14:41:10.368Z,53.90
2018-06-07T14:43:39.222Z,54.00
2018-06-07T14:46:08.067Z,54.00
2018-06-07T14:48:36.931Z,54.00
2018-06-07T14:51:05.743Z,54.10
2018-06-07T14:53:34.602Z,54.10
2018-06-07T14:56:03.439Z,54.10
2018-06-07T14:58:32.304Z,54.20
2018-06-07T15:01:01.153Z,54.20
2018-06-07T15:03:30.015Z,54.10
2018-06-07T15:05:58.839Z,54.10
2018-06-07T15:08:27.755Z,54.30
2018-06-07T15:10:56.567Z,54.50
2018-06-07T15:13:25.432Z,54.50
2018-06-07T15:15:54.272Z,54.50
2018-06-07T15:18:23.150Z,54.50
2018-06-07T15:20:52.106Z,54.50
2018-06-07T15:23:21.071Z,54.50
2018-06-07T15:25:49.926Z,54.50
2018-06-07T15:28:18.766Z,54.50
2018-06-07T15:30:47.630Z,54.60
2018-06-07T15:33:16.551Z,54.60
2018-06-07T15:35:45.408Z,54.50
2018-06-07T15:38:14.219Z,54.50
2018-06-07T15:40:43.100Z,54.40
2018-06-07T15:43:12.034Z,54.50
2018-06-07T15:45:40.934Z,54.50
2018-06-07T15:48:09.740Z,54.50
2018-06-07T15:50:38.591Z,54.50
2018-06-07T15:53:07.411Z,54.50
2018-06-07T15:55:36.366Z,54.50
2018-06-07T15:58:05.175Z,54.50
2018-06-07T16:00:34.045Z,54.50
2018-06-07T16:03:03.048Z,54.40
2018-06-07T16:05:31.956Z,54.50
2018-06-07T16:08:00.791Z,54.40
2018-06-07T16:10:29.640Z,54.50
2018-06-07T16:12:58.466Z,54.40
2018-06-07T16:15:27.308Z,54.40
2018-06-07T16:17:56.339Z,54.40
2018-06-07T16:20:25.184Z,54.60
2018-06-07T16:22:54.011Z,54.50
2018-06-07T16:25:22.871Z,55.00
2018-06-07T16:27:51.698Z,54.80
2018-06-07T16:30:20.596Z,54.90
2018-06-07T16:32:49.428Z,54.90
2018-06-07T16:35:18.279Z,55.00
2018-06-07T16:37:47.143Z,54.90
2018-06-07T16:40:16.076Z,54.90
2018-06-07T16:42:44.935Z,54.80
2018-06-07T16:45:13.953Z,55.00
2018-06-07T16:47:42.771Z,54.90
2018-06-07T16:50:11.624Z,55.70
2018-06-07T16:52:40.439Z,54.90
2018-06-07T16:55:09.299Z,54.80
2018-06-07T16:57:38.118Z,54.90
2018-06-07T17:00:06.967Z,54.90
2018-06-07T17:02:35.804Z,54.90
2018-06-07T17:05:04.654Z,54.70
2018-06-07T17:07:33.494Z,54.60
2018-06-07T17:10:02.367Z,54.60
2018-06-07T17:12:31.224Z,54.80
2018-06-07T17:15:00.077Z,55.00
2018-06-07T17:17:28.915Z,55.30
2018-06-07T17:19:57.771Z,55.20
2018-06-07T17:22:26.592Z,55.00
2018-06-07T17:24:55.447Z,55.20
2018-06-07T17:27:24.279Z,55.10
2018-06-07T17:29:53.239Z,55.30
2018-06-07T17:32:22.051Z,55.70
2018-06-07T17:34:50.866Z,55.40
2018-06-07T17:37:19.750Z,54.80
2018-06-07T17:39:48.559Z,54.50
2018-06-07T17:42:17.452Z,54.40
2018-06-07T17:44:46.267Z,54.50
2018-06-07T17:47:15.107Z,54.50
2018-06-07T17:49:43.920Z,54.30
2018-06-07T17:52:12.779Z,54.20
2018-06-07T17:54:41.639Z,54.10
2018-06-07T17:57:10.505Z,54.10
2018-06-07T17:59:39.316Z,54.00
2018-06-07T18:02:08.167Z,53.80
2018-06-07T18:04:36.995Z,53.80
2018-06-07T18:07:05.871Z,53.90
2018-06-07T18:09:34.712Z,53.60
2018-06-07T18:12:03.580Z,53.70
2018-06-07T18:14:32.399Z,53.70
2018-06-07T18:17:01.261Z,53.60
2018-06-07T18:19:30.111Z,53.70
2018-06-07T18:21:58.968Z,53.70
2018-06-07T18:24:27.818Z,53.50
2018-06-07T18:26:56.675Z,53.40
2018-06-07T18:29:25.498Z,53.20
2018-06-07T18:31:54.395Z,53.30
2018-06-07T18:34:23.266Z,53.40
2018-06-07T18:36:52.090Z,53.30
2018-06-07T18:39:20.936Z,53.20
2018-06-07T18:41:49.823Z,53.20
2018-06-07T18:44:18.634Z,53.90
2018-06-07T18:46:47.492Z,53.20
2018-06-07T18:49:16.324Z,53.30
2018-06-07T18:51:45.178Z,53.20
2018-06-07T18:54:14.039Z,53.20
2018-06-07T18:56:43.540Z,53.20
2018-06-07T18:59:12.372Z,53.30
2018-06-07T19:01:41.235Z,53.30
2018-06-07T19:04:10.064Z,53.20
2018-06-07T19:06:38.955Z,53.10
2018-06-07T19:10:12.812Z,53.10
2018-06-07T19:12:41.650Z,53.20
2018-06-07T19:15:12.707Z,53.70
2018-06-07T19:17:41.687Z,53.10
2018-06-07T19:20:15.531Z,53.10
2018-06-07T19:22:44.406Z,53.10
2018-06-07T19:25:18.332Z,53.10
2018-06-07T19:27:47.380Z,53.10
2018-06-07T19:30:16.255Z,53.00
2018-06-07T19:32:50.138Z,53.10
2018-06-07T19:35:19.297Z,53.00
2018-06-07T19:37:48.571Z,52.90
2018-06-07T19:40:22.596Z,52.90
2018-06-07T19:42:51.459Z,53.00
2018-06-07T19:45:20.285Z,52.90
2018-06-07T19:47:49.291Z,53.00
2018-06-07T19:50:18.101Z,52.90
2018-06-07T19:52:46.951Z,52.90
2018-06-07T19:55:15.864Z,53.00
2018-06-07T19:57:44.855Z,52.90
2018-06-07T20:00:13.852Z,52.90
2018-06-07T20:02:42.875Z,52.90
2018-06-07T20:05:11.895Z,52.90
2018-06-07T20:07:40.751Z,52.90
2018-06-07T20:10:09.637Z,52.80
2018-06-07T20:12:38.492Z,52.90
2018-06-07T20:15:07.352Z,52.80
2018-06-07T20:17:36.218Z,52.80
2018-06-07T20:20:06.995Z,52.80
2018-06-07T20:22:36.004Z,52.80
2018-06-07T20:25:04.901Z,52.80
2018-06-07T20:27:33.747Z,52.80
2018-06-07T20:30:02.635Z,53.20
2018-06-07T20:32:31.480Z,52.80
2018-06-07T20:35:00.294Z,52.70
2018-06-07T20:37:29.143Z,52.70
2018-06-07T20:39:57.946Z,52.80
2018-06-07T20:42:26.793Z,52.80
2018-06-07T20:44:55.615Z,52.90
2018-06-07T20:47:26.079Z,52.90
2018-06-07T20:49:54.890Z,52.80
2018-06-07T20:52:23.935Z,52.80
2018-06-07T20:54:52.787Z,52.80
2018-06-07T20:57:21.614Z,52.90
2018-06-07T20:59:50.471Z,52.80
2018-06-07T21:02:19.291Z,52.80
2018-06-07T21:04:48.150Z,52.90
2018-06-07T21:07:16.971Z,52.90
2018-06-07T21:09:45.879Z,53.00
2018-06-07T21:12:14.722Z,53.00
2018-06-07T21:14:43.586Z,53.60
2018-06-07T21:17:12.427Z,52.90
2018-06-07T21:19:41.288Z,52.90
2018-06-07T21:22:10.110Z,52.90
2018-06-07T21:24:38.954Z,53.00
2018-06-07T21:27:07.810Z,53.00
2018-06-07T21:29:36.758Z,53.00
2018-06-07T21:32:05.597Z,53.00
2018-06-07T21:34:34.479Z,53.00
2018-06-07T21:37:03.295Z,53.10
2018-06-07T21:39:32.143Z,53.10
2018-06-07T21:42:00.943Z,53.00
2018-06-07T21:44:29.795Z,53.10
2018-06-07T21:46:58.610Z,53.10
2018-06-07T21:49:27.459Z,53.10
2018-06-07T21:51:56.284Z,53.10
2018-06-07T21:54:25.163Z,53.20
2018-06-07T21:56:53.983Z,53.10
2018-06-07T21:59:22.847Z,53.10
2018-06-07T22:01:51.654Z,53.10
2018-06-07T22:04:20.508Z,53.20
2018-06-07T22:06:49.331Z,53.20
2018-06-07T22:09:18.184Z,53.20
2018-06-07T22:11:47.059Z,53.20
2018-06-07T22:14:15.907Z,53.20
2018-06-07T22:16:44.755Z,53.20
2018-06-07T22:19:14.644Z,53.20
2018-06-07T22:21:43.575Z,53.20
2018-06-07T22:24:12.546Z,53.30
2018-06-07T22:26:41.389Z,53.30
2018-06-07T22:29:10.235Z,53.30
2018-06-07T22:31:39.100Z,53.30
2018-06-07T22:34:07.990Z,53.30
2018-06-07T22:36:36.818Z,53.30
2018-06-07T22:39:07.924Z,53.40
2018-06-07T22:41:36.951Z,53.30
2018-06-07T22:44:05.805Z,53.40
2018-06-07T22:46:34.612Z,53.40
2018-06-07T22:49:03.457Z,53.50
2018-06-07T22:51:32.339Z,53.50
2018-06-07T22:54:01.187Z,54.20
2018-06-07T22:56:30.047Z,53.60
2018-06-07T22:58:58.947Z,53.60
2018-06-07T23:01:27.846Z,53.60
2018-06-07T23:03:56.726Z,53.70
2018-06-07T23:06:25.535Z,53.70
2018-06-07T23:08:54.351Z,53.70
2018-06-07T23:11:23.264Z,53.70
2018-06-07T23:13:52.087Z,53.70
2018-06-07T23:16:20.942Z,53.70
2018-06-07T23:18:49.759Z,53.70
2018-06-07T23:21:18.604Z,53.70
2018-06-07T23:23:47.436Z,53.70
2018-06-07T23:26:16.289Z,53.70
2018-06-07T23:28:45.118Z,53.70
2018-06-07T23:31:14.126Z,53.60
2018-06-07T23:33:42.957Z,53.60
2018-06-07T23:36:11.852Z,53.70
2018-06-07T23:38:40.671Z,53.70
2018-06-07T23:41:09.531Z,53.70
2018-06-07T23:43:38.352Z,53.70
2018-06-07T23:46:07.191Z,53.70
2018-06-07T23:48:36.015Z,53.70
2018-06-07T23:51:04.889Z,53.60
2018-06-07T23:53:33.740Z,53.70
2018-06-07T23:56:02.578Z,53.70
2018-06-07T23:58:31.445Z,53.70
